首页
METAR-TAF:

METAR-TAF

机场 :

DeKalb Taylor Municipal Airport

迪卡尔布, 伊利诺伊州, 美国

纬度: 41-55-55N, 经度: 088-42-30W, 海拔: 279米

当前天气观测

该预报发布于34分钟前的08:15 UTC
风速11节,风向东南
温度 -7°C
湿度 86%
气压 1030 hPa
能見度: 16.1公里
天空无云

METAR: KDKB 120815Z AUTO 14011KT 10SM CLR M07/M09 A3041 RMK AO2 T10731090

时间: 02:49 (08:49 UTC)


TAF: 丢失

超过4000个机场的气象观测和天气预报(METAR&TAF报告)。

可查询的气象台以黄色和红色小点在地图上表示。

将鼠标移到小点上方,可查看气象台名称。

然后点击查看天气观测和预报。

如需切换地图:点击带黑十字的绿色按钮放大地图;点击带横线的绿色按钮缩小地图;或者点击绿色箭头查看邻近地区的地图。


METAR-TAF: